<?xml version="1.0" encoding="UTF-8" standalone="no" ?>
<gpx xmlns="http://www.topografix.com/GPX/1/1" xmlns:xsi="http://www.w3.org/2001/XMLSchema-instance" xsi:schemaLocation="http://www.topografix.com/GPX/1/1 http://www.topografix.com/GPX/1/1/gpx.xsd" version="1.1" creator="VisuGPX - https://www.visugpx.com">
  <metadata>
    <name>De Gochenée à Soulme par la vallée de l'Hermeton</name>
  </metadata>
  <trk>
    <name><![CDATA[De GochenÃ©e Ã  Soulme par la vallÃ©e de l'Hermeton]]></name>
    <trkseg>
      <trkpt lat="50.18462" lon="4.76003">
        <ele>220</ele>
      </trkpt>
      <trkpt lat="50.18411" lon="4.75941">
        <ele>222.1</ele>
      </trkpt>
      <trkpt lat="50.18409" lon="4.75894">
        <ele>220.006</ele>
        <time>2020-09-13T16:22:00Z</time>
      </trkpt>
      <trkpt lat="50.18461" lon="4.75745">
        <ele>220.071</ele>
        <time>2020-09-13T16:22:40Z</time>
      </trkpt>
      <trkpt lat="50.18486" lon="4.75735">
        <ele>220.05</ele>
        <time>2020-09-13T16:23:20Z</time>
      </trkpt>
      <trkpt lat="50.18437" lon="4.75633">
        <ele>220.047</ele>
        <time>2020-09-13T16:24:00Z</time>
      </trkpt>
      <trkpt lat="50.1843" lon="4.75548">
        <ele>220.023</ele>
        <time>2020-09-13T16:24:40Z</time>
      </trkpt>
      <trkpt lat="50.18417" lon="4.75462">
        <ele>220.069</ele>
        <time>2020-09-13T16:25:20Z</time>
      </trkpt>
      <trkpt lat="50.18414" lon="4.75372">
        <ele>217.082</ele>
        <time>2020-09-13T16:26:00Z</time>
      </trkpt>
      <trkpt lat="50.1839" lon="4.75246">
        <ele>214.022</ele>
        <time>2020-09-13T16:26:40Z</time>
      </trkpt>
      <trkpt lat="50.18395" lon="4.74817">
        <ele>188.062</ele>
        <time>2020-09-13T16:27:20Z</time>
      </trkpt>
      <trkpt lat="50.18403" lon="4.74633">
        <ele>180.008</ele>
        <time>2020-09-13T16:28:00Z</time>
      </trkpt>
      <trkpt lat="50.18394" lon="4.74579">
        <ele>170.006</ele>
        <time>2020-09-13T16:28:40Z</time>
      </trkpt>
      <trkpt lat="50.18397" lon="4.74376">
        <ele>145.045</ele>
        <time>2020-09-13T16:29:20Z</time>
      </trkpt>
      <trkpt lat="50.184" lon="4.74307">
        <ele>140.014</ele>
        <time>2020-09-13T16:30:00Z</time>
      </trkpt>
      <trkpt lat="50.18498" lon="4.74446">
        <ele>155</ele>
      </trkpt>
      <trkpt lat="50.18591" lon="4.74539">
        <ele>149.7</ele>
      </trkpt>
      <trkpt lat="50.18689" lon="4.74612">
        <ele>152</ele>
      </trkpt>
      <trkpt lat="50.18779" lon="4.74639">
        <ele>144.9</ele>
      </trkpt>
      <trkpt lat="50.18826" lon="4.74663">
        <ele>142.8</ele>
      </trkpt>
      <trkpt lat="50.18931" lon="4.74627">
        <ele>144.4</ele>
      </trkpt>
      <trkpt lat="50.19047" lon="4.74668">
        <ele>140.4</ele>
      </trkpt>
      <trkpt lat="50.19085" lon="4.74637">
        <ele>139.7</ele>
      </trkpt>
      <trkpt lat="50.19135" lon="4.74702">
        <ele>140.005</ele>
        <time>2020-09-13T17:47:20Z</time>
      </trkpt>
      <trkpt lat="50.19179" lon="4.74659">
        <ele>140.025</ele>
        <time>2020-09-13T17:48:00Z</time>
      </trkpt>
      <trkpt lat="50.19292" lon="4.74846">
        <ele>140.006</ele>
        <time>2020-09-13T17:48:40Z</time>
      </trkpt>
      <trkpt lat="50.19412" lon="4.75037">
        <ele>150.07</ele>
        <time>2020-09-13T17:49:20Z</time>
      </trkpt>
      <trkpt lat="50.19464" lon="4.75214">
        <ele>141.019</ele>
        <time>2020-09-13T17:50:00Z</time>
      </trkpt>
      <trkpt lat="50.19502" lon="4.7537">
        <ele>140.016</ele>
        <time>2020-09-13T17:50:40Z</time>
      </trkpt>
      <trkpt lat="50.19512" lon="4.75451">
        <ele>140.092</ele>
        <time>2020-09-13T17:51:20Z</time>
      </trkpt>
      <trkpt lat="50.19525" lon="4.75509">
        <ele>145.058</ele>
        <time>2020-09-13T17:52:00Z</time>
      </trkpt>
      <trkpt lat="50.19555" lon="4.75557">
        <ele>145.011</ele>
        <time>2020-09-13T17:52:40Z</time>
      </trkpt>
      <trkpt lat="50.19603" lon="4.75586">
        <ele>140.086</ele>
        <time>2020-09-13T17:53:20Z</time>
      </trkpt>
      <trkpt lat="50.19671" lon="4.75606">
        <ele>140.06</ele>
        <time>2020-09-13T17:54:00Z</time>
      </trkpt>
      <trkpt lat="50.19746" lon="4.75635">
        <ele>140.026</ele>
        <time>2020-09-13T17:54:40Z</time>
      </trkpt>
      <trkpt lat="50.19824" lon="4.75654">
        <ele>140.006</ele>
        <time>2020-09-13T17:55:20Z</time>
      </trkpt>
      <trkpt lat="50.1995" lon="4.75461">
        <ele>150.021</ele>
        <time>2020-09-13T17:56:00Z</time>
      </trkpt>
      <trkpt lat="50.19959" lon="4.75448">
        <ele>145.01</ele>
        <time>2020-09-13T17:56:40Z</time>
      </trkpt>
      <trkpt lat="50.19999" lon="4.75416">
        <ele>140.047</ele>
        <time>2020-09-13T17:57:20Z</time>
      </trkpt>
      <trkpt lat="50.20092" lon="4.75375">
        <ele>142.013</ele>
        <time>2020-09-13T17:58:00Z</time>
      </trkpt>
      <trkpt lat="50.20149" lon="4.75371">
        <ele>140.079</ele>
        <time>2020-09-13T17:58:40Z</time>
      </trkpt>
      <trkpt lat="50.20189" lon="4.75405">
        <ele>141.022</ele>
        <time>2020-09-13T17:59:20Z</time>
      </trkpt>
      <trkpt lat="50.20204" lon="4.75448">
        <ele>140.078</ele>
        <time>2020-09-13T18:00:00Z</time>
      </trkpt>
      <trkpt lat="50.20213" lon="4.75489">
        <ele>140.033</ele>
        <time>2020-09-13T18:00:40Z</time>
      </trkpt>
      <trkpt lat="50.2021" lon="4.7555">
        <ele>140.026</ele>
        <time>2020-09-13T18:01:20Z</time>
      </trkpt>
      <trkpt lat="50.20179" lon="4.75664">
        <ele>140.006</ele>
        <time>2020-09-13T18:02:00Z</time>
      </trkpt>
      <trkpt lat="50.20164" lon="4.75714">
        <ele>140.07</ele>
        <time>2020-09-13T18:02:40Z</time>
      </trkpt>
      <trkpt lat="50.20166" lon="4.75787">
        <ele>141.089</ele>
        <time>2020-09-13T18:03:20Z</time>
      </trkpt>
      <trkpt lat="50.2018" lon="4.75859">
        <ele>141.046</ele>
        <time>2020-09-13T18:04:00Z</time>
      </trkpt>
      <trkpt lat="50.20211" lon="4.75894">
        <ele>141.012</ele>
        <time>2020-09-13T18:04:40Z</time>
      </trkpt>
      <trkpt lat="50.20238" lon="4.75922">
        <ele>145.028</ele>
        <time>2020-09-13T18:05:20Z</time>
      </trkpt>
      <trkpt lat="50.20292" lon="4.75934">
        <ele>141.091</ele>
        <time>2020-09-13T18:06:00Z</time>
      </trkpt>
      <trkpt lat="50.20388" lon="4.75989">
        <ele>140.033</ele>
        <time>2020-09-13T18:06:40Z</time>
      </trkpt>
      <trkpt lat="50.20435" lon="4.76035">
        <ele>140.023</ele>
        <time>2020-09-13T18:07:20Z</time>
      </trkpt>
      <trkpt lat="50.20458" lon="4.76095">
        <ele>140.015</ele>
        <time>2020-09-13T18:08:00Z</time>
      </trkpt>
      <trkpt lat="50.20454" lon="4.76141">
        <ele>135.006</ele>
        <time>2020-09-13T18:08:40Z</time>
      </trkpt>
      <trkpt lat="50.20394" lon="4.76207">
        <ele>130.086</ele>
        <time>2020-09-13T18:09:20Z</time>
      </trkpt>
      <trkpt lat="50.20364" lon="4.76103">
        <ele>138.085</ele>
        <time>2020-09-13T18:10:00Z</time>
      </trkpt>
      <trkpt lat="50.20321" lon="4.7607">
        <ele>143.012</ele>
        <time>2020-09-13T18:10:40Z</time>
      </trkpt>
      <trkpt lat="50.20266" lon="4.76082">
        <ele>146.048</ele>
        <time>2020-09-13T18:11:20Z</time>
      </trkpt>
      <trkpt lat="50.20182" lon="4.76126">
        <ele>170.054</ele>
        <time>2020-09-13T18:12:00Z</time>
      </trkpt>
      <trkpt lat="50.20088" lon="4.76132">
        <ele>190.027</ele>
        <time>2020-09-13T18:12:40Z</time>
      </trkpt>
      <trkpt lat="50.20038" lon="4.76097">
        <ele>192.079</ele>
        <time>2020-09-13T18:13:20Z</time>
      </trkpt>
      <trkpt lat="50.19974" lon="4.76098">
        <ele>194.005</ele>
        <time>2020-09-13T18:14:00Z</time>
      </trkpt>
      <trkpt lat="50.19927" lon="4.76124">
        <ele>198.025</ele>
        <time>2020-09-13T18:14:40Z</time>
      </trkpt>
      <trkpt lat="50.1991" lon="4.76188">
        <ele>200.006</ele>
        <time>2020-09-13T18:15:20Z</time>
      </trkpt>
      <trkpt lat="50.19913" lon="4.76244">
        <ele>200.05</ele>
        <time>2020-09-13T18:16:00Z</time>
      </trkpt>
      <trkpt lat="50.19914" lon="4.76296">
        <ele>200.049</ele>
        <time>2020-09-13T18:16:40Z</time>
      </trkpt>
      <trkpt lat="50.19903" lon="4.76329">
        <ele>200.016</ele>
        <time>2020-09-13T18:17:20Z</time>
      </trkpt>
      <trkpt lat="50.19824" lon="4.7633">
        <ele>205.092</ele>
        <time>2020-09-13T18:18:00Z</time>
      </trkpt>
      <trkpt lat="50.19754" lon="4.76371">
        <ele>208.088</ele>
        <time>2020-09-13T18:18:40Z</time>
      </trkpt>
      <trkpt lat="50.19606" lon="4.76492">
        <ele>215.051</ele>
        <time>2020-09-13T18:19:20Z</time>
      </trkpt>
      <trkpt lat="50.19567" lon="4.76506">
        <ele>220.092</ele>
        <time>2020-09-13T18:20:00Z</time>
      </trkpt>
      <trkpt lat="50.19356" lon="4.76593">
        <ele>231.073</ele>
        <time>2020-09-13T18:20:40Z</time>
      </trkpt>
      <trkpt lat="50.19269" lon="4.76624">
        <ele>239.02</ele>
        <time>2020-09-13T18:21:20Z</time>
      </trkpt>
      <trkpt lat="50.19187" lon="4.7667">
        <ele>237.006</ele>
        <time>2020-09-13T18:22:00Z</time>
      </trkpt>
      <trkpt lat="50.19128" lon="4.7671">
        <ele>232.082</ele>
        <time>2020-09-13T18:22:40Z</time>
      </trkpt>
      <trkpt lat="50.19088" lon="4.76776">
        <ele>227.031</ele>
        <time>2020-09-13T18:23:20Z</time>
      </trkpt>
      <trkpt lat="50.19149" lon="4.76931">
        <ele>238.038</ele>
        <time>2020-09-13T18:24:00Z</time>
      </trkpt>
      <trkpt lat="50.19254" lon="4.77082">
        <ele>240.014</ele>
        <time>2020-09-13T18:24:40Z</time>
      </trkpt>
      <trkpt lat="50.19377" lon="4.77255">
        <ele>222.09</ele>
        <time>2020-09-13T18:25:20Z</time>
      </trkpt>
      <trkpt lat="50.19491" lon="4.77391">
        <ele>215.033</ele>
        <time>2020-09-13T18:26:00Z</time>
      </trkpt>
      <trkpt lat="50.19591" lon="4.7749">
        <ele>207.036</ele>
        <time>2020-09-13T18:26:40Z</time>
      </trkpt>
      <trkpt lat="50.19642" lon="4.77509">
        <ele>200.017</ele>
        <time>2020-09-13T18:27:20Z</time>
      </trkpt>
      <trkpt lat="50.19651" lon="4.77502">
        <ele>200.018</ele>
        <time>2020-09-13T18:28:00Z</time>
      </trkpt>
      <trkpt lat="50.1966" lon="4.77454">
        <ele>200.006</ele>
        <time>2020-09-13T18:28:40Z</time>
      </trkpt>
      <trkpt lat="50.19638" lon="4.77363">
        <ele>190.046</ele>
        <time>2020-09-13T18:29:20Z</time>
      </trkpt>
      <trkpt lat="50.19622" lon="4.77313">
        <ele>190.025</ele>
        <time>2020-09-13T18:30:00Z</time>
      </trkpt>
      <trkpt lat="50.19619" lon="4.7724">
        <ele>180.072</ele>
        <time>2020-09-13T18:30:40Z</time>
      </trkpt>
      <trkpt lat="50.19629" lon="4.77233">
        <ele>177.068</ele>
        <time>2020-09-13T18:31:20Z</time>
      </trkpt>
      <trkpt lat="50.19759" lon="4.77397">
        <ele>163.014</ele>
        <time>2020-09-13T18:32:00Z</time>
      </trkpt>
      <trkpt lat="50.19827" lon="4.77518">
        <ele>140.027</ele>
        <time>2020-09-13T18:32:40Z</time>
      </trkpt>
      <trkpt lat="50.19873" lon="4.77611">
        <ele>130.029</ele>
        <time>2020-09-13T18:33:20Z</time>
      </trkpt>
      <trkpt lat="50.19915" lon="4.77686">
        <ele>110</ele>
        <time>2020-09-13T18:34:00Z</time>
      </trkpt>
      <trkpt lat="50.19949" lon="4.77755">
        <ele>110.02</ele>
        <time>2020-09-13T18:34:40Z</time>
      </trkpt>
      <trkpt lat="50.19939" lon="4.77775">
        <ele>110.006</ele>
        <time>2020-09-13T18:35:20Z</time>
      </trkpt>
      <trkpt lat="50.19863" lon="4.77785">
        <ele>120.065</ele>
        <time>2020-09-13T18:36:00Z</time>
      </trkpt>
      <trkpt lat="50.19748" lon="4.7776">
        <ele>138.034</ele>
        <time>2020-09-13T18:36:40Z</time>
      </trkpt>
      <trkpt lat="50.19664" lon="4.77719">
        <ele>156.061</ele>
        <time>2020-09-13T18:37:20Z</time>
      </trkpt>
      <trkpt lat="50.19566" lon="4.77725">
        <ele>165.047</ele>
        <time>2020-09-13T18:38:00Z</time>
      </trkpt>
      <trkpt lat="50.1951" lon="4.77754">
        <ele>150.013</ele>
        <time>2020-09-13T18:38:40Z</time>
      </trkpt>
      <trkpt lat="50.19479" lon="4.77791">
        <ele>150.096</ele>
        <time>2020-09-13T18:39:20Z</time>
      </trkpt>
      <trkpt lat="50.19462" lon="4.77856">
        <ele>150.077</ele>
        <time>2020-09-13T18:40:00Z</time>
      </trkpt>
      <trkpt lat="50.19441" lon="4.77924">
        <ele>150.061</ele>
        <time>2020-09-13T18:40:40Z</time>
      </trkpt>
      <trkpt lat="50.1943" lon="4.77952">
        <ele>150.027</ele>
        <time>2020-09-13T18:41:20Z</time>
      </trkpt>
      <trkpt lat="50.19417" lon="4.77957">
        <ele>150.006</ele>
        <time>2020-09-13T18:42:00Z</time>
      </trkpt>
      <trkpt lat="50.19376" lon="4.77937">
        <ele>150.09</ele>
        <time>2020-09-13T18:42:40Z</time>
      </trkpt>
      <trkpt lat="50.19328" lon="4.77886">
        <ele>150.089</ele>
        <time>2020-09-13T18:43:20Z</time>
      </trkpt>
      <trkpt lat="50.19275" lon="4.77871">
        <ele>150.026</ele>
        <time>2020-09-13T18:44:00Z</time>
      </trkpt>
      <trkpt lat="50.19172" lon="4.77863">
        <ele>160.022</ele>
        <time>2020-09-13T18:44:40Z</time>
      </trkpt>
      <trkpt lat="50.19085" lon="4.77869">
        <ele>164.098</ele>
        <time>2020-09-13T18:45:20Z</time>
      </trkpt>
      <trkpt lat="50.19053" lon="4.77919">
        <ele>160.091</ele>
        <time>2020-09-13T18:46:00Z</time>
      </trkpt>
      <trkpt lat="50.19031" lon="4.77984">
        <ele>175.012</ele>
        <time>2020-09-13T18:46:40Z</time>
      </trkpt>
      <trkpt lat="50.18987" lon="4.77989">
        <ele>163.032</ele>
        <time>2020-09-13T18:47:20Z</time>
      </trkpt>
      <trkpt lat="50.18965" lon="4.77983">
        <ele>163.005</ele>
        <time>2020-09-13T18:48:00Z</time>
      </trkpt>
      <trkpt lat="50.18946" lon="4.7795">
        <ele>160.006</ele>
        <time>2020-09-13T18:48:40Z</time>
      </trkpt>
      <trkpt lat="50.18916" lon="4.77916">
        <ele>160.034</ele>
        <time>2020-09-13T18:49:20Z</time>
      </trkpt>
      <trkpt lat="50.18892" lon="4.77884">
        <ele>160.033</ele>
        <time>2020-09-13T18:50:00Z</time>
      </trkpt>
      <trkpt lat="50.1887" lon="4.77817">
        <ele>161.05</ele>
        <time>2020-09-13T18:50:40Z</time>
      </trkpt>
      <trkpt lat="50.18846" lon="4.7763">
        <ele>160.076</ele>
        <time>2020-09-13T18:51:20Z</time>
      </trkpt>
      <trkpt lat="50.18825" lon="4.77547">
        <ele>170.082</ele>
        <time>2020-09-13T18:52:00Z</time>
      </trkpt>
      <trkpt lat="50.18823" lon="4.7746">
        <ele>171.065</ele>
        <time>2020-09-13T18:52:40Z</time>
      </trkpt>
      <trkpt lat="50.18843" lon="4.77343">
        <ele>180.011</ele>
        <time>2020-09-13T18:53:20Z</time>
      </trkpt>
      <trkpt lat="50.18825" lon="4.77143">
        <ele>185.021</ele>
        <time>2020-09-13T18:54:00Z</time>
      </trkpt>
      <trkpt lat="50.18812" lon="4.76983">
        <ele>200.003</ele>
        <time>2020-09-13T18:54:40Z</time>
      </trkpt>
      <trkpt lat="50.18791" lon="4.76876">
        <ele>202.006</ele>
        <time>2020-09-13T18:55:20Z</time>
      </trkpt>
      <trkpt lat="50.1879" lon="4.76787">
        <ele>208.064</ele>
        <time>2020-09-13T18:56:00Z</time>
      </trkpt>
      <trkpt lat="50.18793" lon="4.76659">
        <ele>218.073</ele>
        <time>2020-09-13T18:56:40Z</time>
      </trkpt>
      <trkpt lat="50.18775" lon="4.76551">
        <ele>222.05</ele>
        <time>2020-09-13T18:57:20Z</time>
      </trkpt>
      <trkpt lat="50.18719" lon="4.76345">
        <ele>219.036</ele>
        <time>2020-09-13T18:58:00Z</time>
      </trkpt>
      <trkpt lat="50.18683" lon="4.76249">
        <ele>215.012</ele>
        <time>2020-09-13T18:58:40Z</time>
      </trkpt>
      <trkpt lat="50.18555" lon="4.7614">
        <ele>216.035</ele>
        <time>2020-09-13T18:59:20Z</time>
      </trkpt>
      <trkpt lat="50.18466" lon="4.76025">
        <ele>219.075</ele>
        <time>2020-09-13T19:00:00Z</time>
      </trkpt>
      <trkpt lat="50.1846" lon="4.76001">
        <ele>220.4</ele>
      </trkpt>
    </trkseg>
  </trk>
</gpx>